createdAt,value
2023-04-10T00:02:05.093Z,101234.34
2023-04-10T00:04:41.533Z,101229.38
2023-04-10T00:07:12.209Z,101234.41
2023-04-10T00:09:40.598Z,101234.16
2023-04-10T00:12:11.552Z,101237.63
2023-04-10T00:14:41.989Z,101236.67
2023-04-10T00:17:10.840Z,101235.89
2023-04-10T00:19:39.430Z,101231.58
2023-04-10T00:22:08.836Z,101231.00
2023-04-10T00:24:39.891Z,101230.09
2023-04-10T00:27:11.629Z,101229.14
2023-04-10T00:29:39.908Z,101229.29
2023-04-10T00:32:08.935Z,101227.45
2023-04-10T00:34:54.885Z,101225.64
2023-04-10T00:37:23.852Z,101230.77
2023-04-10T00:39:52.477Z,101226.59
2023-04-10T00:42:21.053Z,101222.33
2023-04-10T00:44:49.437Z,101226.19
2023-04-10T00:47:18.066Z,101225.81
2023-04-10T00:49:46.556Z,101225.80
2023-04-10T00:52:15.095Z,101225.36
2023-04-10T00:54:47.082Z,101223.55
2023-04-10T00:57:15.840Z,101224.44
2023-04-10T00:59:44.506Z,101226.39
2023-04-10T01:02:13.673Z,101224.27
2023-04-10T01:04:42.794Z,101227.80
2023-04-10T01:07:56.235Z,101221.59
2023-04-10T01:10:34.931Z,101217.80
2023-04-10T01:13:12.084Z,101214.18
2023-04-10T01:16:03.500Z,101208.63
2023-04-10T01:18:43.505Z,101206.20
2023-04-10T01:21:12.521Z,101207.66
2023-04-10T01:23:47.019Z,101209.88
2023-04-10T01:26:17.652Z,101208.77
2023-04-10T01:28:57.089Z,101211.96
2023-04-10T01:31:27.883Z,101207.84
2023-04-10T01:34:00.280Z,101202.34
2023-04-10T01:36:32.786Z,101200.04
2023-04-10T01:39:01.056Z,101200.98
2023-04-10T01:41:30.145Z,101201.05
2023-04-10T01:43:59.962Z,101204.82
2023-04-10T01:46:29.621Z,101202.80
2023-04-10T01:48:58.972Z,101200.02
2023-04-10T01:51:28.162Z,101201.39
2023-04-10T01:53:56.484Z,101204.39
2023-04-10T01:56:28.099Z,101202.04
2023-04-10T01:58:56.780Z,101199.16
2023-04-10T02:01:29.632Z,101194.44
2023-04-10T02:03:59.814Z,101192.20
2023-04-10T02:06:51.817Z,101194.98
2023-04-10T02:09:24.034Z,101187.43
2023-04-10T02:11:59.201Z,101187.58
2023-04-10T02:14:37.430Z,101182.47
2023-04-10T02:17:06.849Z,101184.09
2023-04-10T02:19:35.211Z,101189.50
2023-04-10T02:22:05.129Z,101188.30
2023-04-10T02:24:35.279Z,101190.41
2023-04-10T02:27:04.036Z,101191.21
2023-04-10T02:29:39.180Z,101188.35
2023-04-10T02:32:09.189Z,101188.09
2023-04-10T02:34:37.776Z,101191.00
2023-04-10T02:37:07.186Z,101190.90
2023-04-10T02:39:37.292Z,101194.02
2023-04-10T02:42:05.978Z,101193.96
2023-04-10T02:44:35.075Z,101189.33
2023-04-10T02:47:03.704Z,101188.17
2023-04-10T02:49:35.209Z,101187.14
2023-04-10T02:52:09.938Z,101185.15
2023-04-10T02:54:39.859Z,101183.77
2023-04-10T02:57:08.685Z,101183.14
2023-04-10T02:59:43.778Z,101185.95
2023-04-10T03:02:12.382Z,101186.12
2023-04-10T03:04:41.591Z,101186.16
2023-04-10T03:07:11.070Z,101191.32
2023-04-10T03:09:40.158Z,101189.89
2023-04-10T03:12:08.645Z,101192.34
2023-04-10T03:14:40.915Z,101198.31
2023-04-10T03:17:09.193Z,101192.86
2023-04-10T03:19:38.176Z,101193.61
2023-04-10T03:22:08.401Z,101195.19
2023-04-10T03:24:38.533Z,101199.91
2023-04-10T03:27:10.862Z,101198.67
2023-04-10T03:29:39.886Z,101198.35
2023-04-10T03:32:08.773Z,101200.32
2023-04-10T03:34:37.943Z,101198.36
2023-04-10T03:37:06.815Z,101195.00
2023-04-10T03:39:37.416Z,101197.15
2023-04-10T03:42:05.970Z,101195.08
2023-04-10T03:44:36.090Z,101191.73
2023-04-10T03:47:06.366Z,101197.88
2023-04-10T03:49:35.961Z,101199.48
2023-04-10T03:52:07.580Z,101198.33
2023-04-10T03:54:37.504Z,101197.84
2023-04-10T03:57:06.217Z,101202.27
2023-04-10T03:59:38.886Z,101207.42
2023-04-10T04:02:11.135Z,101209.61
2023-04-10T04:04:40.619Z,101209.33
2023-04-10T04:07:28.990Z,101214.34
2023-04-10T04:10:08.206Z,101210.86
2023-04-10T04:12:59.832Z,101213.35
2023-04-10T04:15:41.116Z,101215.69
2023-04-10T04:18:26.795Z,101214.16
2023-04-10T04:21:16.680Z,101214.77
2023-04-10T04:24:02.674Z,101215.16
2023-04-10T04:26:52.348Z,101214.68
2023-04-10T04:29:40.490Z,101216.32
2023-04-10T04:32:17.448Z,101212.34
2023-04-10T04:35:07.557Z,101216.37
2023-04-10T04:37:53.044Z,101216.12
2023-04-10T04:40:48.967Z,101220.25
2023-04-10T04:43:41.819Z,101219.58
2023-04-10T04:46:33.156Z,101218.60
2023-04-10T04:49:22.810Z,101218.36
2023-04-10T04:52:06.247Z,101222.00
2023-04-10T04:54:50.913Z,101221.73
2023-04-10T04:57:41.015Z,101223.99
2023-04-10T05:00:28.022Z,101220.71
2023-04-10T05:03:11.650Z,101218.13
2023-04-10T05:05:53.494Z,101216.20
2023-04-10T05:08:31.021Z,101219.92
2023-04-10T05:11:25.224Z,101219.98
2023-04-10T05:14:23.421Z,101221.86
2023-04-10T05:17:24.359Z,101216.20
2023-04-10T05:20:03.453Z,101212.94
2023-04-10T05:22:50.691Z,101209.79
2023-04-10T05:25:48.971Z,101204.48
2023-04-10T05:28:37.501Z,101207.13
2023-04-10T05:31:25.164Z,101206.37
2023-04-10T05:34:20.053Z,101210.35
2023-04-10T05:37:14.546Z,101209.87
2023-04-10T05:40:03.663Z,101213.27
2023-04-10T05:42:58.180Z,101209.61
2023-04-10T05:45:34.413Z,101210.52
2023-04-10T05:48:03.517Z,101209.97
2023-04-10T05:50:52.420Z,101210.60
2023-04-10T05:53:43.716Z,101214.54
2023-04-10T05:56:15.495Z,101213.66
2023-04-10T05:59:07.919Z,101216.11
2023-04-10T06:01:42.473Z,101219.41
2023-04-10T06:04:11.413Z,101221.35
2023-04-10T06:06:41.142Z,101226.73
2023-04-10T06:09:11.772Z,101226.98
2023-04-10T06:11:40.798Z,101227.54
2023-04-10T06:14:10.524Z,101229.83
2023-04-10T06:16:43.563Z,101233.68
2023-04-10T06:19:12.214Z,101229.70
2023-04-10T06:21:40.857Z,101230.16
2023-04-10T06:24:15.150Z,101231.67
2023-04-10T06:26:44.352Z,101228.77
2023-04-10T06:29:13.355Z,101225.64
2023-04-10T06:31:43.124Z,101224.91
2023-04-10T06:34:11.874Z,101223.40
2023-04-10T06:36:42.778Z,101229.00
2023-04-10T06:39:11.777Z,101226.02
2023-04-10T06:41:40.262Z,101226.15
2023-04-10T06:44:17.030Z,101227.95
2023-04-10T06:46:45.557Z,101225.08
2023-04-10T06:49:14.089Z,101228.78
2023-04-10T06:51:42.694Z,101237.54
2023-04-10T06:54:12.271Z,101234.02
2023-04-10T06:56:41.692Z,101225.81
2023-04-10T06:59:11.381Z,101230.39
2023-04-10T07:01:39.772Z,101234.04
2023-04-10T07:04:08.911Z,101235.17
2023-04-10T07:06:39.783Z,101229.52
2023-04-10T07:09:08.491Z,101232.60
2023-04-10T07:11:37.281Z,101224.20
2023-04-10T07:14:05.662Z,101221.92
2023-04-10T07:16:34.183Z,101221.77
2023-04-10T07:19:03.712Z,101217.77
2023-04-10T07:21:33.866Z,101218.55
2023-04-10T07:24:03.268Z,101218.39
2023-04-10T07:26:31.980Z,101216.73
2023-04-10T07:29:02.854Z,101219.73
2023-04-10T07:31:32.120Z,101212.92
2023-04-10T07:34:01.003Z,101215.44
2023-04-10T07:36:29.767Z,101211.08
2023-04-10T07:38:58.663Z,101212.96
2023-04-10T07:41:27.552Z,101211.50
2023-04-10T07:44:02.896Z,101206.66
2023-04-10T07:46:32.804Z,101217.39
2023-04-10T07:49:01.532Z,101211.90
2023-04-10T07:51:31.200Z,101216.20
2023-04-10T07:53:59.477Z,101212.05
2023-04-10T07:56:31.687Z,101203.65
2023-04-10T07:59:00.853Z,101203.39
2023-04-10T08:01:30.674Z,101201.53
2023-04-10T08:04:04.672Z,101201.80
2023-04-10T08:06:34.688Z,101202.29
2023-04-10T08:09:03.399Z,101194.41
2023-04-10T08:11:37.385Z,101189.02
2023-04-10T08:14:07.530Z,101190.39
2023-04-10T08:16:36.637Z,101187.41
2023-04-10T08:19:08.704Z,101190.91
2023-04-10T08:21:37.035Z,101182.73
2023-04-10T08:24:06.124Z,101175.72
2023-04-10T08:26:34.769Z,101181.77
2023-04-10T08:29:03.405Z,101173.87
2023-04-10T08:31:34.556Z,101177.31
2023-04-10T08:34:04.470Z,101178.08
2023-04-10T08:36:37.286Z,101172.11
2023-04-10T08:39:06.744Z,101163.73
2023-04-10T08:41:34.946Z,101167.40
2023-04-10T08:44:08.006Z,101157.20
2023-04-10T08:46:37.064Z,101160.66
2023-04-10T08:49:08.040Z,101158.11
2023-04-10T08:59:16.811Z,101149.73
2023-04-10T09:01:47.062Z,101145.02
2023-04-10T09:04:18.444Z,101143.52
2023-04-10T09:06:47.375Z,101144.40
2023-04-10T09:09:20.157Z,101146.13
2023-04-10T09:11:55.643Z,101141.83
2023-04-10T09:14:29.489Z,101152.09
2023-04-10T09:17:18.128Z,101148.11
2023-04-10T09:19:49.813Z,101136.27
2023-04-10T09:22:19.697Z,101136.10
2023-04-10T09:24:50.062Z,101145.91
2023-04-10T09:27:35.735Z,101137.48
2023-04-10T09:30:05.796Z,101132.59
2023-04-10T09:32:45.032Z,101130.55
2023-04-10T09:35:15.123Z,101122.98
2023-04-10T09:37:44.612Z,101117.30
2023-04-10T09:40:21.883Z,101116.19
2023-04-10T09:42:54.583Z,101116.52
2023-04-10T09:45:23.264Z,101112.65
2023-04-10T09:48:07.298Z,101110.71
2023-04-10T09:50:39.839Z,101103.42
2023-04-10T09:53:19.646Z,101095.54
2023-04-10T09:55:49.637Z,101095.15
2023-04-10T09:58:19.462Z,101103.73
2023-04-10T10:00:49.077Z,101098.97
2023-04-10T10:03:21.490Z,101096.33
2023-04-10T10:05:50.954Z,101087.28
2023-04-10T10:08:26.597Z,101090.38
2023-04-10T10:10:57.733Z,101086.15
2023-04-10T10:13:35.431Z,101084.91
2023-04-10T10:16:10.330Z,101080.47
2023-04-10T10:19:01.177Z,101078.34
2023-04-10T10:21:29.985Z,101080.82
2023-04-10T10:23:59.499Z,101079.55
2023-04-10T10:26:29.483Z,101088.27
2023-04-10T10:28:58.347Z,101089.73
2023-04-10T10:31:33.744Z,101079.17
2023-04-10T10:34:07.338Z,101071.07
2023-04-10T10:36:36.571Z,101073.79
2023-04-10T10:39:27.642Z,101063.70
2023-04-10T10:42:26.420Z,101078.68
2023-04-10T10:45:03.295Z,101072.34
2023-04-10T10:47:32.673Z,101060.46
2023-04-10T10:50:04.248Z,101051.06
2023-04-10T10:52:50.461Z,101055.15
2023-04-10T10:55:24.920Z,101049.80
2023-04-10T10:57:57.892Z,101043.77
2023-04-10T11:00:27.289Z,101061.91
2023-04-10T11:03:09.390Z,101048.09
2023-04-10T11:05:59.237Z,101039.96
2023-04-10T11:08:34.341Z,101051.69
2023-04-10T11:11:23.803Z,101042.11
2023-04-10T11:13:53.564Z,101054.39
2023-04-10T11:16:36.847Z,101031.48
2023-04-10T11:22:08.653Z,101032.88
2023-04-10T11:24:53.018Z,101024.52
2023-04-10T11:27:41.207Z,101022.89
2023-04-10T11:30:26.641Z,101021.63
2023-04-10T11:32:56.478Z,101016.80
2023-04-10T11:35:27.836Z,101019.42
2023-04-10T11:38:10.212Z,101022.56
2023-04-10T11:40:57.136Z,101019.36
2023-04-10T11:43:25.825Z,101010.64
2023-04-10T11:46:02.102Z,101014.17
2023-04-10T11:48:30.959Z,101005.99
2023-04-10T11:51:02.018Z,100997.98
2023-04-10T11:53:30.581Z,100996.23
2023-04-10T11:55:59.060Z,100988.03
2023-04-10T11:58:30.888Z,100991.20
2023-04-10T12:01:04.342Z,100987.05
2023-04-10T12:03:37.001Z,100984.16
2023-04-10T12:06:13.082Z,100988.92
2023-04-10T12:08:43.757Z,100984.80
2023-04-10T12:11:13.179Z,100981.38
2023-04-10T12:13:42.693Z,100982.60
2023-04-10T12:16:13.152Z,100968.17
2023-04-10T12:18:42.110Z,100968.13
2023-04-10T12:21:10.446Z,100971.10
2023-04-10T12:23:47.039Z,100956.48
2023-04-10T12:26:16.800Z,100954.48
2023-04-10T12:28:55.834Z,100972.20
2023-04-10T12:31:33.694Z,100948.67
2023-04-10T12:34:03.440Z,100948.09
2023-04-10T12:36:34.359Z,100944.99
2023-04-10T12:39:04.204Z,100952.03
2023-04-10T12:41:34.045Z,100945.21
2023-04-10T12:44:11.775Z,100943.75
2023-04-10T12:46:41.814Z,100942.70
2023-04-10T12:49:15.768Z,100936.64
2023-04-10T12:51:50.156Z,100926.11
2023-04-10T12:54:37.064Z,100926.95
2023-04-10T12:57:08.629Z,100930.05
2023-04-10T12:59:41.272Z,100919.71
2023-04-10T13:02:11.393Z,100919.52
2023-04-10T13:04:42.411Z,100916.49
2023-04-10T13:07:10.765Z,100922.55
2023-04-10T13:09:39.931Z,100906.34
2023-04-10T13:12:08.930Z,100905.75
2023-04-10T13:14:38.017Z,100924.20
2023-04-10T13:17:07.318Z,100918.33
2023-04-10T13:19:40.749Z,100911.94
2023-04-10T13:22:09.578Z,100914.24
2023-04-10T13:24:38.360Z,100910.50
2023-04-10T13:27:16.171Z,100902.69
2023-04-10T13:29:46.383Z,100906.95
2023-04-10T13:32:15.709Z,100912.66
2023-04-10T13:34:43.927Z,100905.19
2023-04-10T13:37:13.473Z,100900.23
2023-04-10T13:39:43.480Z,100895.96
2023-04-10T13:42:11.668Z,100894.74
2023-04-10T13:44:40.060Z,100889.99
2023-04-10T13:47:14.606Z,100889.48
2023-04-10T13:49:43.759Z,100894.84
2023-04-10T13:52:12.496Z,100885.06
2023-04-10T13:54:41.511Z,100878.32
2023-04-10T13:57:09.729Z,100884.36
2023-04-10T13:59:41.948Z,100883.11
2023-04-10T14:02:13.226Z,100887.42
2023-04-10T14:04:42.786Z,100880.68
2023-04-10T14:07:12.014Z,100877.64
2023-04-10T14:09:40.957Z,100886.54
2023-04-10T14:12:09.643Z,100879.92
2023-04-10T14:14:40.934Z,100874.94
2023-04-10T14:17:09.498Z,100880.25
2023-04-10T14:19:38.015Z,100882.36
2023-04-10T14:22:06.252Z,100891.63
2023-04-10T14:24:35.108Z,100880.42
2023-04-10T14:27:03.762Z,100872.60
2023-04-10T14:29:38.775Z,100873.49
2023-04-10T14:32:11.273Z,100868.86
2023-04-10T14:34:40.123Z,100868.33
2023-04-10T14:37:08.436Z,100868.88
2023-04-10T14:39:43.878Z,100872.84
2023-04-10T14:42:12.396Z,100862.23
2023-04-10T14:44:40.658Z,100869.54
2023-04-10T14:47:08.934Z,100864.27
2023-04-10T14:49:37.378Z,100867.12
2023-04-10T14:52:07.994Z,100863.06
2023-04-10T14:54:36.925Z,100860.60
2023-04-10T14:57:06.798Z,100857.24
2023-04-10T14:59:36.130Z,100858.35
2023-04-10T15:02:04.715Z,100854.84
2023-04-10T15:04:33.109Z,100857.37
2023-04-10T15:07:01.746Z,100855.81
2023-04-10T15:09:30.552Z,100854.98
2023-04-10T15:12:02.077Z,100847.92
2023-04-10T15:14:30.961Z,100850.09
2023-04-10T15:16:59.339Z,100847.83
2023-04-10T15:19:33.677Z,100847.17
2023-04-10T15:22:03.270Z,100846.85
2023-04-10T15:24:37.037Z,100844.21
2023-04-10T15:27:12.496Z,100838.73
2023-04-10T15:29:42.879Z,100836.98
2023-04-10T15:32:11.569Z,100834.17
2023-04-10T15:34:40.455Z,100830.83
2023-04-10T15:37:08.960Z,100829.27
2023-04-10T15:39:43.635Z,100829.13
2023-04-10T15:42:12.655Z,100829.87
2023-04-10T15:44:42.458Z,100825.10
2023-04-10T15:47:10.764Z,100823.71
2023-04-10T15:49:44.192Z,100820.55
2023-04-10T15:52:12.556Z,100818.27
2023-04-10T15:54:41.589Z,100822.56
2023-04-10T15:57:15.427Z,100819.58
2023-04-10T15:59:43.864Z,100818.02
2023-04-10T16:02:12.393Z,100814.33
2023-04-10T16:04:45.498Z,100814.72
2023-04-10T16:07:14.531Z,100814.56
2023-04-10T16:09:43.141Z,100815.32
2023-04-10T16:12:14.910Z,100807.54
2023-04-10T16:14:43.249Z,100806.16
2023-04-10T16:17:11.538Z,100799.80
2023-04-10T16:19:55.275Z,100798.44
2023-04-10T16:22:27.577Z,100795.48
2023-04-10T16:24:59.576Z,100798.38
2023-04-10T16:27:27.916Z,100802.67
2023-04-10T16:29:56.555Z,100802.20
2023-04-10T16:32:27.086Z,100803.84
2023-04-10T16:34:56.573Z,100798.71
2023-04-10T16:37:25.705Z,100804.80
2023-04-10T16:39:56.246Z,100802.88
2023-04-10T16:42:25.770Z,100799.73
2023-04-10T16:44:54.003Z,100799.75
2023-04-10T16:47:28.209Z,100797.66
2023-04-10T16:49:56.522Z,100798.77
2023-04-10T16:52:32.822Z,100803.08
2023-04-10T16:55:01.638Z,100804.17
2023-04-10T16:57:32.168Z,100804.40
2023-04-10T17:00:00.998Z,100804.09
2023-04-10T17:02:32.685Z,100806.27
2023-04-10T17:05:01.390Z,100803.63
2023-04-10T17:07:35.191Z,100810.23
2023-04-10T17:10:04.844Z,100815.07
2023-04-10T17:12:33.874Z,100807.29
2023-04-10T17:15:03.700Z,100804.65
2023-04-10T17:17:34.395Z,100803.27
2023-04-10T17:20:03.386Z,100804.02
2023-04-10T17:22:33.018Z,100805.64
2023-04-10T17:25:04.317Z,100804.27
2023-04-10T17:27:33.041Z,100800.04
2023-04-10T17:30:13.187Z,100803.79
2023-04-10T17:32:48.688Z,100806.31
2023-04-10T17:35:17.908Z,100806.17
2023-04-10T17:37:51.106Z,100811.69
2023-04-10T17:40:20.271Z,100814.04
2023-04-10T17:42:53.724Z,100816.20
2023-04-10T17:45:23.056Z,100816.05
2023-04-10T17:47:53.032Z,100810.78
2023-04-10T17:50:22.072Z,100807.27
2023-04-10T17:52:51.841Z,100806.79
2023-04-10T17:55:24.485Z,100808.06
2023-04-10T17:57:55.056Z,100813.41
2023-04-10T18:00:24.788Z,100813.09
2023-04-10T18:03:01.155Z,100806.92
2023-04-10T18:05:30.532Z,100802.30
2023-04-10T18:08:02.394Z,100807.46
2023-04-10T18:10:32.439Z,100804.66
2023-04-10T18:13:01.976Z,100806.45
2023-04-10T18:15:31.500Z,100809.66
2023-04-10T18:18:00.204Z,100808.96
2023-04-10T18:20:29.807Z,100808.99
2023-04-10T18:22:59.259Z,100810.96
2023-04-10T18:25:30.038Z,100805.15
2023-04-10T18:30:39.114Z,100808.73
2023-04-10T18:33:12.311Z,100812.83
2023-04-10T18:35:44.646Z,100809.30
2023-04-10T18:38:16.326Z,100807.55
2023-04-10T18:40:48.032Z,100812.88
2023-04-10T18:43:19.583Z,100807.23
2023-04-10T18:45:51.085Z,100801.41
2023-04-10T18:48:23.092Z,100805.85
2023-04-10T18:50:55.067Z,100805.88
2023-04-10T18:53:28.057Z,100800.94
2023-04-10T18:56:00.126Z,100801.67
2023-04-10T18:58:36.848Z,100799.73
2023-04-10T19:01:11.042Z,100791.09
2023-04-10T19:03:44.764Z,100791.10
2023-04-10T19:06:23.937Z,100790.41
2023-04-10T19:08:56.178Z,100781.76
2023-04-10T19:11:28.747Z,100781.06
2023-04-10T19:14:06.480Z,100782.67
2023-04-10T19:16:38.161Z,100776.49
2023-04-10T19:19:10.080Z,100777.39
2023-04-10T19:21:44.525Z,100777.40
2023-04-10T19:31:52.635Z,100766.65
2023-04-10T19:34:23.148Z,100770.20
2023-04-10T19:36:52.874Z,100769.69
2023-04-10T19:39:22.046Z,100771.83
2023-04-10T19:41:51.042Z,100761.41
2023-04-10T19:44:20.235Z,100757.19
2023-04-10T19:46:56.289Z,100758.96
2023-04-10T19:49:27.231Z,100755.96
2023-04-10T19:51:57.149Z,100755.42
2023-04-10T19:54:26.231Z,100752.77
2023-04-10T19:56:55.031Z,100749.08
2023-04-10T19:59:26.481Z,100746.09
2023-04-10T20:01:55.963Z,100742.38
2023-04-10T20:04:24.677Z,100745.56
2023-04-10T20:06:58.486Z,100737.63
2023-04-10T20:09:27.063Z,100746.64
2023-04-10T20:11:57.588Z,100741.52
2023-04-10T20:14:29.958Z,100735.35
2023-04-10T20:16:58.751Z,100747.89
2023-04-10T20:19:27.026Z,100742.60
2023-04-10T20:21:59.657Z,100736.60
2023-04-10T20:24:30.640Z,100738.36
2023-04-10T20:26:59.131Z,100733.78
2023-04-10T20:29:27.808Z,100728.30
2023-04-10T20:31:56.857Z,100726.89
2023-04-10T20:34:25.800Z,100727.08
2023-04-10T20:36:54.172Z,100727.61
2023-04-10T20:39:22.962Z,100730.80
2023-04-10T20:41:51.547Z,100724.08
2023-04-10T20:44:21.459Z,100722.84
2023-04-10T20:46:50.644Z,100717.38
2023-04-10T20:49:19.453Z,100714.38
2023-04-10T20:51:48.029Z,100714.02
2023-04-10T20:54:19.198Z,100711.19
2023-04-10T20:56:48.017Z,100712.78
2023-04-10T20:59:18.285Z,100708.36
2023-04-10T21:01:47.606Z,100712.60
2023-04-10T21:04:16.295Z,100712.23
2023-04-10T21:06:45.057Z,100707.29
2023-04-10T21:09:13.672Z,100707.45
2023-04-10T21:11:42.121Z,100705.16
2023-04-10T21:14:15.514Z,100704.45
2023-04-10T21:16:46.603Z,100702.71
2023-04-10T21:19:14.839Z,100704.30
2023-04-10T21:21:45.486Z,100703.58
2023-04-10T21:24:14.357Z,100701.80
2023-04-10T21:26:42.903Z,100696.52
2023-04-10T21:29:11.258Z,100696.84
2023-04-10T21:31:39.777Z,100692.58
2023-04-10T21:34:16.690Z,100693.45
2023-04-10T21:36:45.155Z,100688.86
2023-04-10T21:39:13.752Z,100692.38
2023-04-10T21:49:24.868Z,100684.09
2023-04-10T21:51:53.290Z,100676.14
2023-04-10T21:54:21.750Z,100676.84
2023-04-10T21:56:50.308Z,100678.05
2023-04-10T21:59:18.689Z,100673.46
2023-04-10T22:01:47.811Z,100668.86
2023-04-10T22:04:16.779Z,100666.02
2023-04-10T22:06:46.895Z,100662.84
2023-04-10T22:09:15.373Z,100658.77
2023-04-10T22:11:43.855Z,100658.93
2023-04-10T22:14:16.502Z,100658.21
2023-04-10T22:16:46.754Z,100651.48
2023-04-10T22:19:15.656Z,100650.77
2023-04-10T22:21:44.138Z,100647.05
2023-04-10T22:24:13.427Z,100642.27
2023-04-10T22:26:42.372Z,100638.38
2023-04-10T22:29:11.449Z,100640.66
2023-04-10T22:31:44.009Z,100643.64
2023-04-10T22:34:12.490Z,100642.38
2023-04-10T22:36:41.160Z,100637.09
2023-04-10T22:39:10.260Z,100642.71
2023-04-10T22:41:40.790Z,100640.05
2023-04-10T22:44:10.082Z,100640.05
2023-04-10T22:46:40.925Z,100641.98
2023-04-10T22:49:09.632Z,100638.10
2023-04-10T22:51:38.083Z,100637.04
2023-04-10T22:54:06.768Z,100639.32
2023-04-10T22:56:35.560Z,100632.80
2023-04-10T22:59:09.462Z,100635.61
2023-04-10T23:01:38.196Z,100632.09
2023-04-10T23:04:06.759Z,100632.09
2023-04-10T23:06:36.798Z,100625.75
2023-04-10T23:09:06.793Z,100620.64
2023-04-10T23:11:39.559Z,100615.00
2023-04-10T23:14:08.561Z,100613.23
2023-04-10T23:16:38.151Z,100615.36
2023-04-10T23:19:06.627Z,100608.13
2023-04-10T23:21:35.638Z,100606.20
2023-04-10T23:24:06.459Z,100602.02
2023-04-10T23:26:34.734Z,100596.74
2023-04-10T23:29:03.533Z,100596.77
2023-04-10T23:31:32.155Z,100598.52
2023-04-10T23:34:00.996Z,100594.14
2023-04-10T23:36:29.413Z,100591.48
2023-04-10T23:38:57.869Z,100586.38
2023-04-10T23:41:29.516Z,100590.95
2023-04-10T23:43:58.606Z,100584.60
2023-04-10T23:46:26.969Z,100586.35
2023-04-10T23:48:57.744Z,100588.45
2023-04-10T23:51:28.147Z,100583.69
2023-04-10T23:53:57.103Z,100579.80
2023-04-10T23:56:29.434Z,100574.34
2023-04-10T23:58:57.799Z,100574.17
